Time;durP1;ratioP1;P1;durP2;ratioP2;P2;SDS_P1;SDS_P2;PMS_P1;PMS_P2;Temp;Humidity;BMP_temperature;BMP_pressure;BME280_temperature;BME280_humidity;BME280_pressure;Samples;Min_cycle;Max_cycle;Signal;HPM_P1;HPM_P2
2023/09/26 00:01:08;;;;;;;8.13;3.97;;;12.10;99.90;;;;;;5022785;28;20525;-51
2023/09/26 00:03:35;;;;;;;6.80;3.67;;;12.00;99.90;;;;;;5025698;28;20459;-53
2023/09/26 00:06:03;;;;;;;3.30;3.10;;;12.00;99.90;;;;;;5027795;28;20471;-51
2023/09/26 00:08:29;;;;;;;3.83;3.53;;;12.00;99.90;;;;;;5027999;28;20485;-52
2023/09/26 00:10:57;;;;;;;4.03;3.70;;;12.00;99.90;;;;;;5024416;28;20883;-53
2023/09/26 00:13:24;;;;;;;4.10;3.70;;;12.00;99.90;;;;;;5016432;28;20483;-53
2023/09/26 00:15:50;;;;;;;6.60;3.50;;;12.00;99.90;;;;;;5020512;28;20467;-54
2023/09/26 00:18:17;;;;;;;10.70;3.53;;;12.00;99.90;;;;;;5016608;28;20530;-52
2023/09/26 00:20:44;;;;;;;3.93;3.63;;;12.00;99.90;;;;;;5022379;28;20545;-53
2023/09/26 00:23:11;;;;;;;3.57;3.27;;;11.90;99.90;;;;;;5021843;28;20447;-52
2023/09/26 00:25:38;;;;;;;4.03;3.30;;;11.90;99.90;;;;;;5026015;28;20463;-52
2023/09/26 00:28:07;;;;;;;3.50;3.30;;;11.90;99.90;;;;;;5024216;28;20482;-53
2023/09/26 00:30:33;;;;;;;7.23;3.60;;;12.00;99.90;;;;;;5026090;28;20447;-52
2023/09/26 00:33:00;;;;;;;4.50;4.20;;;11.90;99.90;;;;;;5027009;28;20482;-52
2023/09/26 00:35:26;;;;;;;3.43;3.23;;;11.90;99.90;;;;;;5021096;28;20491;-52
2023/09/26 00:37:53;;;;;;;8.00;4.17;;;11.90;99.90;;;;;;5019884;28;20992;-52
2023/09/26 00:40:23;;;;;;;4.03;3.73;;;11.90;99.90;;;;;;5019051;28;20528;-52
2023/09/26 00:42:50;;;;;;;4.87;3.20;;;11.90;99.90;;;;;;5030632;28;20577;-53
2023/09/26 00:45:18;;;;;;;4.33;3.57;;;11.90;99.90;;;;;;5024853;28;20545;-52
2023/09/26 00:47:45;;;;;;;6.07;3.50;;;11.80;99.90;;;;;;5022675;28;20518;-52
2023/09/26 00:50:13;;;;;;;5.40;4.10;;;11.80;99.90;;;;;;5024689;28;21112;-52
2023/09/26 00:52:42;;;;;;;3.70;3.50;;;11.70;99.90;;;;;;5023088;28;20892;-53
2023/09/26 00:55:10;;;;;;;3.83;3.47;;;11.70;99.90;;;;;;5025355;28;20501;-53
2023/09/26 00:57:38;;;;;;;3.53;3.33;;;11.70;99.90;;;;;;5029928;28;20482;-53
2023/09/26 01:00:07;;;;;;;3.10;2.80;;;11.70;99.90;;;;;;5020588;28;20892;-51
2023/09/26 01:02:35;;;;;;;3.77;3.47;;;11.70;99.90;;;;;;5032485;28;20466;-53
2023/09/26 01:05:03;;;;;;;4.60;3.40;;;11.70;99.90;;;;;;5028732;28;20536;-53
2023/09/26 01:07:31;;;;;;;13.73;3.40;;;11.70;99.90;;;;;;5028102;28;20478;-52
2023/09/26 01:09:58;;;;;;;6.50;3.60;;;11.70;99.90;;;;;;5017964;28;20459;-52
2023/09/26 01:12:26;;;;;;;3.70;3.40;;;11.70;99.90;;;;;;5024528;28;20478;-51
2023/09/26 01:14:52;;;;;;;4.30;3.80;;;11.70;99.90;;;;;;5022690;28;20458;-51
2023/09/26 01:17:19;;;;;;;3.80;3.50;;;11.70;99.90;;;;;;5026331;28;21023;-52
2023/09/26 01:19:47;;;;;;;4.67;3.50;;;11.70;99.90;;;;;;5024079;28;20516;-52
2023/09/26 01:22:17;;;;;;;6.97;3.60;;;11.70;99.90;;;;;;5023132;28;20451;-51
2023/09/26 01:24:45;;;;;;;5.10;3.53;;;11.60;99.90;;;;;;5026109;28;20459;-52
2023/09/26 01:27:12;;;;;;;4.10;3.80;;;11.70;99.90;;;;;;5027573;28;21016;-50
2023/09/26 01:29:38;;;;;;;5.30;3.80;;;11.60;99.90;;;;;;5030106;28;20956;-52
2023/09/26 01:32:05;;;;;;;4.27;3.93;;;11.60;99.90;;;;;;5026649;28;20506;-52
2023/09/26 01:34:32;;;;;;;3.53;3.23;;;11.60;99.90;;;;;;5026354;28;20499;-53
2023/09/26 01:36:58;;;;;;;4.77;4.10;;;11.50;99.90;;;;;;5025707;28;20466;-52
2023/09/26 01:39:25;;;;;;;3.77;3.47;;;11.50;99.90;;;;;;5022570;28;20502;-53
2023/09/26 01:41:53;;;;;;;3.97;3.67;;;11.50;99.90;;;;;;5028630;28;20460;-52
2023/09/26 01:44:19;;;;;;;5.13;3.73;;;11.40;99.90;;;;;;5023072;28;20509;-52
2023/09/26 01:46:46;;;;;;;3.90;3.60;;;11.50;99.90;;;;;;5030192;28;20516;-53
2023/09/26 01:49:12;;;;;;;4.50;3.67;;;11.50;99.90;;;;;;5024344;28;20483;-52
2023/09/26 01:51:39;;;;;;;4.77;4.37;;;11.40;99.90;;;;;;5031215;28;20450;-52
2023/09/26 01:54:06;;;;;;;3.90;3.60;;;11.40;99.90;;;;;;5030445;28;20519;-55
2023/09/26 01:56:33;;;;;;;4.83;3.57;;;11.40;99.90;;;;;;5031832;28;20462;-53
2023/09/26 01:59:01;;;;;;;4.47;4.10;;;11.40;99.90;;;;;;5023665;28;20482;-53
2023/09/26 02:01:27;;;;;;;4.60;3.80;;;11.40;99.90;;;;;;5024004;28;21023;-52
2023/09/26 02:03:54;;;;;;;3.60;3.30;;;11.30;99.90;;;;;;5029446;28;20852;-52
2023/09/26 02:06:21;;;;;;;4.00;3.60;;;11.20;99.90;;;;;;5026091;28;20454;-53
2023/09/26 02:08:47;;;;;;;3.70;3.40;;;11.30;99.90;;;;;;5020142;28;20487;-54
2023/09/26 02:11:14;;;;;;;5.30;3.53;;;11.30;99.90;;;;;;5024564;28;20447;-52
2023/09/26 02:13:41;;;;;;;3.50;3.30;;;11.20;99.90;;;;;;5021593;28;20518;-54
2023/09/26 02:16:11;;;;;;;3.40;3.10;;;11.20;99.90;;;;;;5021888;28;20494;-51
2023/09/26 02:18:38;;;;;;;4.17;3.80;;;11.20;99.90;;;;;;5031949;28;20470;-51
2023/09/26 02:21:05;;;;;;;5.10;3.57;;;11.10;99.90;;;;;;5026711;28;21035;-51
2023/09/26 02:23:32;;;;;;;4.80;4.40;;;11.10;99.90;;;;;;5021296;28;20456;-51
2023/09/26 02:25:58;;;;;;;4.50;4.20;;;11.10;99.90;;;;;;5024049;28;20526;-51
2023/09/26 02:28:25;;;;;;;7.70;4.23;;;11.10;99.90;;;;;;5017685;28;20541;-52
2023/09/26 02:30:51;;;;;;;3.40;3.20;;;11.00;99.90;;;;;;5025735;28;20492;-52
2023/09/26 02:33:19;;;;;;;4.50;4.20;;;11.00;99.90;;;;;;5022774;28;20600;-52
2023/09/26 02:35:46;;;;;;;4.10;3.67;;;10.90;99.90;;;;;;5016361;28;20547;-53
2023/09/26 02:38:12;;;;;;;4.80;4.40;;;11.00;99.90;;;;;;5019775;28;20482;-55
2023/09/26 02:40:39;;;;;;;5.83;4.40;;;11.00;99.90;;;;;;5029716;28;20540;-51
2023/09/26 02:43:06;;;;;;;5.40;4.13;;;11.00;99.90;;;;;;5028755;28;20956;-51
2023/09/26 02:45:33;;;;;;;5.63;4.40;;;11.00;99.90;;;;;;5023569;28;20463;-51
2023/09/26 02:48:00;;;;;;;4.27;3.80;;;11.00;99.90;;;;;;5023120;28;20518;-53
2023/09/26 02:50:28;;;;;;;6.50;4.60;;;10.90;99.90;;;;;;5019445;28;20548;-52
2023/09/26 02:52:55;;;;;;;5.30;4.10;;;10.90;99.90;;;;;;5021258;28;20507;-52
2023/09/26 02:55:21;;;;;;;4.73;4.27;;;10.90;99.90;;;;;;5029453;28;20869;-53
2023/09/26 02:57:48;;;;;;;4.60;4.13;;;10.90;99.90;;;;;;5030418;28;20528;-52
2023/09/26 03:00:17;;;;;;;4.40;4.10;;;10.90;99.90;;;;;;5025432;28;20480;-53
2023/09/26 03:02:43;;;;;;;4.23;3.83;;;10.90;99.90;;;;;;5025816;28;20546;-53
2023/09/26 03:05:10;;;;;;;5.07;4.27;;;10.80;99.90;;;;;;5028111;28;20519;-51
2023/09/26 03:07:39;;;;;;;4.33;3.80;;;10.80;99.90;;;;;;5023527;28;20224;-53
2023/09/26 03:10:07;;;;;;;4.33;3.93;;;10.70;99.90;;;;;;5031085;28;20455;-51
2023/09/26 03:12:34;;;;;;;4.37;3.87;;;10.70;99.90;;;;;;5017906;28;20487;-52
2023/09/26 03:15:00;;;;;;;4.10;3.80;;;10.70;99.90;;;;;;5024062;28;20451;-51
2023/09/26 03:17:28;;;;;;;4.50;4.10;;;10.70;99.90;;;;;;5022025;28;20490;-52
2023/09/26 03:19:54;;;;;;;5.77;4.27;;;10.70;99.90;;;;;;5025885;28;20451;-53
2023/09/26 03:22:21;;;;;;;4.50;4.20;;;10.60;99.90;;;;;;5029347;28;20983;-53
2023/09/26 03:24:49;;;;;;;7.03;4.50;;;10.60;99.90;;;;;;5024158;28;20463;-52
2023/09/26 03:27:15;;;;;;;4.10;3.80;;;10.60;99.90;;;;;;5029427;28;20513;-53
2023/09/26 03:29:42;;;;;;;4.60;4.20;;;10.60;99.90;;;;;;5030372;28;20921;-52
2023/09/26 03:32:08;;;;;;;5.87;4.17;;;10.60;99.90;;;;;;5018984;28;20458;-53
2023/09/26 03:34:35;;;;;;;4.63;4.23;;;10.60;99.90;;;;;;5024143;28;20482;-51
2023/09/26 03:37:02;;;;;;;5.90;4.60;;;10.60;99.90;;;;;;5022487;28;20945;-52
2023/09/26 03:39:28;;;;;;;7.93;4.30;;;10.60;99.90;;;;;;5025110;28;20610;-51
2023/09/26 03:41:56;;;;;;;5.20;4.27;;;10.60;99.90;;;;;;5028504;28;20541;-52
2023/09/26 03:44:23;;;;;;;5.30;4.40;;;10.60;99.90;;;;;;5024984;28;20541;-53
2023/09/26 03:46:49;;;;;;;5.17;4.67;;;10.60;99.90;;;;;;5024332;28;20552;-52
2023/09/26 03:49:16;;;;;;;4.63;4.23;;;10.60;99.90;;;;;;5016665;28;20983;-52
2023/09/26 03:51:42;;;;;;;5.10;4.60;;;10.60;99.90;;;;;;5020121;28;20585;-52
2023/09/26 03:54:09;;;;;;;5.20;4.73;;;10.60;99.90;;;;;;5022587;28;20483;-52
2023/09/26 03:56:35;;;;;;;5.70;5.20;;;10.60;99.90;;;;;;5026151;28;20513;-51
2023/09/26 03:59:03;;;;;;;6.23;5.50;;;10.60;99.90;;;;;;5024862;28;20569;-54
2023/09/26 04:01:30;;;;;;;5.60;5.20;;;10.60;99.90;;;;;;5021129;28;20460;-52
2023/09/26 04:03:56;;;;;;;6.40;5.60;;;10.70;99.90;;;;;;5024313;28;20517;-51
2023/09/26 04:06:23;;;;;;;5.93;5.43;;;10.60;99.90;;;;;;5023894;28;20459;-52
2023/09/26 04:08:50;;;;;;;6.53;5.87;;;10.60;99.90;;;;;;5024162;28;20548;-53
2023/09/26 04:11:17;;;;;;;6.90;5.43;;;10.60;99.90;;;;;;5022374;28;20509;-52
2023/09/26 04:13:44;;;;;;;6.43;5.83;;;10.60;99.90;;;;;;5018308;28;20511;-53
2023/09/26 04:16:13;;;;;;;5.73;5.20;;;10.60;99.90;;;;;;5025033;28;20909;-53
2023/09/26 04:18:40;;;;;;;6.33;5.83;;;10.70;99.90;;;;;;5016952;28;20522;-52
2023/09/26 04:21:07;;;;;;;7.87;5.63;;;10.70;99.90;;;;;;5019334;28;20466;-52
2023/09/26 04:23:34;;;;;;;5.77;5.27;;;10.70;99.90;;;;;;5041764;22;21018;-52
2023/09/26 04:26:01;;;;;;;6.10;5.50;;;10.70;99.90;;;;;;5029440;28;20490;-53
2023/09/26 04:28:28;;;;;;;7.17;6.57;;;10.70;99.90;;;;;;5031245;28;20867;-52
2023/09/26 04:30:54;;;;;;;5.80;5.30;;;10.80;99.90;;;;;;5022525;28;20930;-53
2023/09/26 04:33:22;;;;;;;6.30;5.70;;;10.80;99.90;;;;;;5025678;28;20482;-52
2023/09/26 04:35:56;;;;;;;6.37;5.77;;;10.80;99.90;;;;;;5027302;28;20795;-52
2023/09/26 04:38:24;;;;;;;6.67;6.07;;;10.80;99.90;;;;;;5029077;28;20471;-52
2023/09/26 04:40:50;;;;;;;7.80;7.00;;;10.80;99.90;;;;;;5027418;28;20459;-53
2023/09/26 04:43:17;;;;;;;7.20;6.30;;;10.80;99.90;;;;;;5030381;28;20882;-53
2023/09/26 04:45:43;;;;;;;10.47;6.97;;;10.80;99.90;;;;;;5030891;28;20442;-53
2023/09/26 04:48:10;;;;;;;7.70;6.60;;;10.80;99.90;;;;;;5029778;28;20818;-52
2023/09/26 04:50:38;;;;;;;8.27;6.20;;;10.80;99.90;;;;;;5023748;28;20469;-52
2023/09/26 04:53:05;;;;;;;7.20;6.50;;;10.80;99.90;;;;;;5023862;28;21083;-52
2023/09/26 04:55:31;;;;;;;8.00;6.97;;;10.80;99.90;;;;;;5028616;28;21031;-52
2023/09/26 04:57:58;;;;;;;9.00;6.67;;;10.80;99.90;;;;;;5021555;28;20459;-53
2023/09/26 05:00:25;;;;;;;6.77;6.23;;;10.90;99.90;;;;;;5026498;28;20551;-52
2023/09/26 05:02:52;;;;;;;7.47;6.80;;;10.80;99.90;;;;;;5029905;28;20479;-53
2023/09/26 05:05:20;;;;;;;8.37;6.70;;;10.80;99.90;;;;;;5032415;28;20459;-52
2023/09/26 05:07:49;;;;;;;14.73;7.43;;;10.80;99.90;;;;;;5018013;28;20483;-52
2023/09/26 05:10:16;;;;;;;7.67;6.77;;;10.80;99.90;;;;;;5028690;28;20447;-53
2023/09/26 05:12:43;;;;;;;7.73;6.90;;;10.80;99.90;;;;;;5026960;28;21049;-52
2023/09/26 05:15:12;;;;;;;8.83;7.37;;;10.80;99.90;;;;;;5029322;28;20972;-53
2023/09/26 05:17:40;;;;;;;14.83;6.57;;;10.80;99.90;;;;;;5029973;28;20910;-51
2023/09/26 05:20:10;;;;;;;8.33;7.37;;;10.80;99.90;;;;;;5023822;28;20465;-52
2023/09/26 05:22:37;;;;;;;9.17;7.37;;;10.90;99.90;;;;;;5020827;28;20607;-52
2023/09/26 05:25:06;;;;;;;10.00;7.97;;;10.90;99.90;;;;;;5019901;28;20508;-53
2023/09/26 05:27:32;;;;;;;9.43;7.40;;;10.90;99.90;;;;;;5025032;28;20459;-51
2023/09/26 05:29:59;;;;;;;15.07;8.70;;;10.90;99.90;;;;;;5022769;28;20456;-52
2023/09/26 05:32:25;;;;;;;9.70;8.10;;;11.00;99.90;;;;;;5025636;28;20462;-52
2023/09/26 05:34:52;;;;;;;12.80;9.27;;;11.00;99.90;;;;;;5030404;28;20796;-52
2023/09/26 05:37:19;;;;;;;13.30;8.40;;;11.10;99.90;;;;;;5026736;28;20463;-52
2023/09/26 05:39:45;;;;;;;9.40;8.50;;;11.10;99.90;;;;;;5032081;28;20494;-51
2023/09/26 05:42:13;;;;;;;9.20;8.30;;;11.10;99.90;;;;;;5024759;28;20512;-51
2023/09/26 05:44:40;;;;;;;8.83;8.03;;;11.20;99.90;;;;;;5032030;28;20454;-51
2023/09/26 05:47:07;;;;;;;10.33;8.77;;;11.20;99.90;;;;;;5033781;28;20462;-52
2023/09/26 05:49:33;;;;;;;9.13;8.23;;;11.20;99.90;;;;;;5030737;28;20469;-52
2023/09/26 05:52:00;;;;;;;10.57;8.67;;;11.20;99.90;;;;;;5031194;28;20442;-52
2023/09/26 05:54:29;;;;;;;9.70;8.63;;;11.30;99.90;;;;;;5032881;28;20927;-52
2023/09/26 05:56:56;;;;;;;17.97;8.70;;;11.30;99.90;;;;;;5033446;28;20462;-52
2023/09/26 05:59:23;;;;;;;9.97;8.60;;;11.30;99.90;;;;;;5029428;28;20466;-52
2023/09/26 06:01:50;;;;;;;8.57;7.77;;;11.30;99.90;;;;;;5029843;28;20457;-52
2023/09/26 06:04:17;;;;;;;8.80;7.80;;;11.40;99.90;;;;;;5030833;28;20475;-52
2023/09/26 06:06:44;;;;;;;9.30;8.40;;;11.40;99.90;;;;;;5033447;28;20861;-53
2023/09/26 06:09:11;;;;;;;10.60;9.30;;;11.50;99.90;;;;;;5033961;28;20462;-52
2023/09/26 06:11:37;;;;;;;9.50;8.60;;;11.50;99.90;;;;;;5032945;28;20458;-52
2023/09/26 06:14:04;;;;;;;10.90;9.00;;;11.60;99.90;;;;;;5030966;28;20571;-51
2023/09/26 06:16:33;;;;;;;10.00;8.03;;;11.60;99.90;;;;;;5022386;28;20550;-53
2023/09/26 06:18:59;;;;;;;9.87;8.47;;;11.70;99.90;;;;;;5031632;28;20886;-52
2023/09/26 06:21:26;;;;;;;9.27;8.47;;;11.70;99.90;;;;;;5032407;28;20466;-52
2023/09/26 06:23:52;;;;;;;13.93;9.97;;;11.80;99.90;;;;;;5031860;28;20565;-53
2023/09/26 06:26:19;;;;;;;13.90;10.80;;;11.90;99.90;;;;;;5028784;28;21030;-53
2023/09/26 06:28:45;;;;;;;13.40;9.30;;;11.90;99.90;;;;;;5033524;28;20466;-53
2023/09/26 06:31:12;;;;;;;16.53;11.33;;;12.00;99.90;;;;;;5031982;28;20466;-52
2023/09/26 06:33:40;;;;;;;15.53;10.73;;;12.10;99.90;;;;;;5024751;28;20493;-52
2023/09/26 06:36:15;;;;;;;22.53;12.87;;;12.20;99.90;;;;;;5028074;28;20945;-52
2023/09/26 06:38:41;;;;;;;12.87;11.20;;;12.30;99.90;;;;;;5033985;28;20837;-52
2023/09/26 06:41:08;;;;;;;15.50;11.90;;;12.40;99.90;;;;;;5034200;28;20467;-55
2023/09/26 06:43:36;;;;;;;15.90;12.37;;;12.50;99.90;;;;;;5029674;28;20907;-52
2023/09/26 06:46:05;;;;;;;13.53;12.10;;;12.60;99.90;;;;;;5032796;28;20458;-52
2023/09/26 06:48:31;;;;;;;15.00;13.00;;;12.70;99.90;;;;;;5026712;28;20465;-54
2023/09/26 06:50:59;;;;;;;17.80;14.50;;;12.80;99.90;;;;;;5032822;28;20552;-55
2023/09/26 06:53:26;;;;;;;15.73;14.13;;;12.90;99.90;;;;;;5026538;28;20477;-53
2023/09/26 06:56:00;;;;;;;27.83;16.43;;;13.00;99.90;;;;;;5029643;28;20463;-52
2023/09/26 06:58:26;;;;;;;14.73;12.50;;;13.10;99.90;;;;;;5025718;28;20510;-54
2023/09/26 07:00:53;;;;;;;20.30;15.87;;;13.30;99.90;;;;;;5018929;28;20549;-53
2023/09/26 07:03:19;;;;;;;25.30;17.77;;;13.40;99.90;;;;;;5025575;28;20953;-52
2023/09/26 07:05:47;;;;;;;22.33;17.10;;;13.50;99.90;;;;;;5016630;28;20462;-53
2023/09/26 07:08:15;;;;;;;19.23;17.33;;;13.70;99.90;;;;;;5024395;28;21007;-52
2023/09/26 07:10:42;;;;;;;27.50;18.60;;;13.90;99.90;;;;;;5026381;28;20462;-52
2023/09/26 07:13:09;;;;;;;23.67;17.93;;;14.10;99.90;;;;;;5034656;28;20500;-53
2023/09/26 07:15:36;;;;;;;23.50;17.70;;;14.20;99.90;;;;;;5029869;28;20568;-53
2023/09/26 07:18:06;;;;;;;31.13;19.27;;;14.30;99.90;;;;;;5022526;28;20486;-53
2023/09/26 07:20:33;;;;;;;26.90;19.47;;;14.50;99.90;;;;;;5024934;28;20509;-52
2023/09/26 07:23:00;;;;;;;33.77;21.20;;;14.50;99.90;;;;;;5029844;28;20560;-53
2023/09/26 07:25:28;;;;;;;24.00;20.80;;;14.70;99.90;;;;;;5022943;28;20465;-52
2023/09/26 07:27:55;;;;;;;30.73;21.80;;;14.80;99.90;;;;;;5028122;28;20525;-52
2023/09/26 07:30:21;;;;;;;27.90;21.43;;;15.00;99.90;;;;;;5023993;28;21220;-53
2023/09/26 07:32:48;;;;;;;31.10;21.13;;;15.10;99.90;;;;;;5019574;28;20514;-61
2023/09/26 07:35:15;;;;;;;26.43;21.77;;;15.20;99.90;;;;;;5030754;28;20540;-53
2023/09/26 07:37:42;;;;;;;26.30;21.40;;;15.20;99.90;;;;;;5020977;28;20548;-52
2023/09/26 07:40:09;;;;;;;26.17;22.10;;;15.30;99.90;;;;;;5020273;28;20479;-51
2023/09/26 07:42:39;;;;;;;24.57;20.53;;;15.40;99.90;;;;;;5021662;28;20483;-52
2023/09/26 07:45:07;;;;;;;24.07;18.90;;;15.50;99.90;;;;;;5026440;28;20467;-51
2023/09/26 07:47:33;;;;;;;26.67;19.43;;;15.60;99.90;;;;;;5029124;28;20459;-52
2023/09/26 07:50:01;;;;;;;29.87;19.87;;;15.70;99.90;;;;;;5026423;28;20518;-51
2023/09/26 07:52:28;;;;;;;24.40;18.83;;;15.80;99.90;;;;;;5023453;28;20461;-52
2023/09/26 07:54:55;;;;;;;35.03;22.50;;;15.90;99.90;;;;;;5029080;28;20479;-51
2023/09/26 07:57:22;;;;;;;25.60;17.97;;;16.10;99.90;;;;;;5029191;28;20468;-52
2023/09/26 07:59:50;;;;;;;24.97;19.40;;;16.30;99.90;;;;;;5023623;28;20475;-51
2023/09/26 08:02:16;;;;;;;28.23;18.30;;;16.40;99.90;;;;;;5029792;28;20488;-51
2023/09/26 08:04:44;;;;;;;25.20;18.43;;;16.50;99.90;;;;;;5031067;28;20510;-52
2023/09/26 08:07:12;;;;;;;26.93;18.13;;;16.70;99.90;;;;;;5030514;28;20532;-52
2023/09/26 08:09:38;;;;;;;20.93;18.23;;;16.80;99.90;;;;;;5026707;28;20458;-53
2023/09/26 08:12:05;;;;;;;28.33;19.60;;;16.90;99.90;;;;;;5027779;28;20483;-52
2023/09/26 08:14:32;;;;;;;22.20;19.77;;;17.10;99.90;;;;;;5027221;28;20483;-52
2023/09/26 08:17:00;;;;;;;25.70;19.50;;;17.20;99.90;;;;;;5023433;28;21018;-51
2023/09/26 08:19:26;;;;;;;29.63;18.83;;;17.30;99.90;;;;;;5015872;28;20576;-51
2023/09/26 08:21:53;;;;;;;26.57;17.57;;;17.40;99.90;;;;;;5024944;28;20490;-51
2023/09/26 08:24:20;;;;;;;29.93;18.87;;;17.50;99.90;;;;;;5024784;28;20483;-52
2023/09/26 08:26:47;;;;;;;25.73;20.00;;;17.60;95.00;;;;;;5024397;28;20490;-51
2023/09/26 08:29:13;;;;;;;26.13;18.23;;;17.70;20.40;;;;;;5018751;28;20532;-51
2023/09/26 08:31:40;;;;;;;23.90;16.90;;;17.90;61.00;;;;;;5025403;28;20825;-53
2023/09/26 08:34:08;;;;;;;21.23;16.63;;;18.00;58.30;;;;;;5024292;28;20544;-51
2023/09/26 08:36:35;;;;;;;24.17;18.50;;;18.20;55.20;;;;;;4999064;28;21042;-52
2023/09/26 08:39:02;;;;;;;20.43;16.30;;;18.30;56.50;;;;;;4988596;28;20463;-52
2023/09/26 08:41:31;;;;;;;28.93;19.77;;;18.40;63.80;;;;;;4988178;28;20642;-51
2023/09/26 08:43:58;;;;;;;36.27;19.50;;;18.50;70.00;;;;;;4990539;28;20845;-52
2023/09/26 08:46:25;;;;;;;24.90;17.60;;;18.60;80.50;;;;;;4995775;28;21201;-51
2023/09/26 08:48:55;;;;;;;20.97;16.87;;;18.80;89.40;;;;;;4990821;28;20549;-52
2023/09/26 08:51:23;;;;;;;19.17;17.20;;;18.90;91.90;;;;;;4988935;28;20596;-52
2023/09/26 08:53:50;;;;;;;21.33;18.50;;;19.10;93.00;;;;;;5007768;28;20546;-52
2023/09/26 08:56:19;;;;;;;25.77;19.77;;;19.20;99.90;;;;;;4996720;28;20487;-51
2023/09/26 08:58:48;;;;;;;19.63;15.50;;;19.30;99.90;;;;;;5016997;28;20495;-52
2023/09/26 09:01:15;;;;;;;20.40;17.53;;;19.50;99.90;;;;;;5011072;28;20462;-51
2023/09/26 09:03:42;;;;;;;23.70;21.20;;;19.60;99.90;;;;;;5013252;28;20856;-51
2023/09/26 09:06:10;;;;;;;37.27;23.33;;;19.70;99.90;;;;;;5003184;28;20467;-52
2023/09/26 09:08:38;;;;;;;28.40;21.60;;;19.60;99.90;;;;;;5011004;28;20474;-51
2023/09/26 09:11:04;;;;;;;31.37;22.10;;;19.80;99.90;;;;;;5023937;28;20574;-52
2023/09/26 09:13:33;;;;;;;27.93;20.47;;;19.90;99.90;;;;;;5010683;28;20857;-51
2023/09/26 09:16:13;;;;;;;29.00;20.83;;;20.00;99.90;;;;;;5011548;28;20519;-51
2023/09/26 09:18:42;;;;;;;27.37;21.80;;;20.20;99.90;;;;;;5017721;28;20678;-52
2023/09/26 09:21:25;;;;;;;28.10;24.13;;;20.30;99.90;;;;;;5015755;28;20586;-51
2023/09/26 09:23:54;;;;;;;24.73;22.00;;;20.30;99.90;;;;;;5009656;28;20517;-51
2023/09/26 09:26:22;;;;;;;26.80;23.10;;;20.40;99.90;;;;;;5023607;28;20509;-52
2023/09/26 09:28:51;;;;;;;31.00;24.17;;;20.50;99.90;;;;;;5026857;28;20462;-51
2023/09/26 09:31:18;;;;;;;27.37;23.80;;;20.60;99.90;;;;;;5020701;28;20463;-51
2023/09/26 09:33:46;;;;;;;37.53;23.20;;;20.70;99.90;;;;;;5030272;28;20482;-51
2023/09/26 09:36:13;;;;;;;33.20;24.97;;;20.80;99.90;;;;;;5018372;28;21022;-51
2023/09/26 09:38:40;;;;;;;23.70;20.83;;;21.20;99.90;;;;;;5028354;28;20513;-51
2023/09/26 09:41:08;;;;;;;26.93;22.40;;;21.50;99.90;;;;;;5019691;28;20462;-51
2023/09/26 09:43:35;;;;;;;30.77;22.07;;;21.80;99.90;;;;;;5027738;28;20482;-52
2023/09/26 09:46:07;;;;;;;29.17;22.83;;;21.60;27.80;;;;;;5022620;28;20490;-51
2023/09/26 09:48:41;;;;;;;30.47;22.93;;;21.40;99.90;;;;;;5022499;28;20464;-56
2023/09/26 09:51:11;;;;;;;24.67;19.80;;;21.40;99.90;;;;;;5019287;28;20460;-52
2023/09/26 09:53:41;;;;;;;27.40;21.50;;;21.50;74.20;;;;;;5018288;28;20529;-52
2023/09/26 09:56:12;;;;;;;26.33;22.13;;;21.50;36.00;;;;;;5016642;28;20482;-52
2023/09/26 09:58:41;;;;;;;31.27;19.90;;;21.60;36.90;;;;;;5023470;28;20513;-51
2023/09/26 10:01:08;;;;;;;30.23;20.63;;;21.80;55.60;;;;;;5022759;28;20465;-51
2023/09/26 10:03:36;;;;;;;22.30;18.90;;;23.00;99.90;;;;;;5023583;28;20483;-52
2023/09/26 10:06:07;;;;;;;32.53;19.73;;;23.40;99.90;;;;;;5009855;28;20462;-52
2023/09/26 10:08:34;;;;;;;27.87;18.93;;;23.00;99.90;;;;;;5019531;28;20466;-52
2023/09/26 10:11:02;;;;;;;27.73;18.20;;;22.50;99.90;;;;;;5012605;28;21045;-51
2023/09/26 10:13:30;;;;;;;23.60;18.43;;;22.40;99.90;;;;;;5013375;28;21211;-51
2023/09/26 10:16:05;;;;;;;29.53;18.47;;;23.70;99.90;;;;;;4988226;28;20625;-51
2023/09/26 10:18:33;;;;;;;27.83;16.23;;;24.10;99.90;;;;;;5004911;28;20458;-52
2023/09/26 10:20:59;;;;;;;16.83;15.00;;;24.00;99.90;;;;;;5011168;28;21363;-52
2023/09/26 10:23:26;;;;;;;14.87;13.27;;;23.90;99.90;;;;;;5010595;28;20522;-51
2023/09/26 10:25:54;;;;;;;20.03;12.03;;;23.90;99.90;;;;;;5023192;22;20527;-53
2023/09/26 10:28:21;;;;;;;12.53;11.20;;;23.50;99.90;;;;;;5007486;28;20455;-52
2023/09/26 10:30:55;;;;;;;13.57;9.10;;;22.90;99.90;;;;;;4988746;28;20468;-52
2023/09/26 10:33:21;;;;;;;13.57;10.03;;;22.80;99.90;;;;;;5001561;28;20858;-54
2023/09/26 10:35:48;;;;;;;9.63;8.63;;;22.70;99.90;;;;;;5001572;28;20841;-53
2023/09/26 10:38:18;;;;;;;21.23;7.90;;;22.80;99.90;;;;;;4996340;28;20570;-54
2023/09/26 10:40:45;;;;;;;7.83;7.13;;;22.60;99.90;;;;;;5001675;28;20478;-54
2023/09/26 10:43:12;;;;;;;13.30;7.40;;;22.50;99.90;;;;;;4993489;28;20460;-54
2023/09/26 10:45:44;;;;;;;10.87;6.80;;;22.30;99.90;;;;;;4991423;28;20483;-53
2023/09/26 10:48:12;;;;;;;12.40;7.10;;;22.20;99.90;;;;;;5000354;28;20462;-54
2023/09/26 10:50:40;;;;;;;9.67;7.03;;;22.20;99.90;;;;;;5012909;28;20483;-55
2023/09/26 10:53:07;;;;;;;11.20;6.53;;;22.10;99.90;;;;;;5003421;28;20521;-54
2023/09/26 10:55:34;;;;;;;7.90;7.20;;;22.10;99.90;;;;;;5011473;28;20561;-53
2023/09/26 10:58:01;;;;;;;18.17;7.70;;;22.10;99.90;;;;;;5010049;28;20467;-55
2023/09/26 11:00:28;;;;;;;8.47;6.63;;;22.00;99.90;;;;;;4988289;28;20492;-53
2023/09/26 11:02:55;;;;;;;9.80;7.20;;;22.00;99.90;;;;;;5007644;28;20495;-54
2023/09/26 11:05:24;;;;;;;8.00;6.77;;;22.10;99.90;;;;;;5003151;28;20523;-54
2023/09/26 11:07:54;;;;;;;11.73;9.90;;;22.10;99.90;;;;;;4999456;28;20559;-53
2023/09/26 11:10:21;;;;;;;9.63;8.50;;;22.30;99.90;;;;;;4996679;28;20498;-53
2023/09/26 11:12:48;;;;;;;9.57;7.60;;;22.20;99.90;;;;;;5006771;28;20459;-53
2023/09/26 11:15:15;;;;;;;12.43;8.73;;;22.10;99.90;;;;;;5001258;28;20852;-53
2023/09/26 11:17:42;;;;;;;11.60;7.27;;;22.00;99.90;;;;;;5007079;28;21025;-53
2023/09/26 11:20:11;;;;;;;10.80;9.80;;;22.10;99.90;;;;;;4990059;28;21215;-51
2023/09/26 11:22:46;;;;;;;10.40;8.17;;;22.10;99.90;;;;;;5002549;28;20511;-50
2023/09/26 11:25:13;;;;;;;34.20;10.07;;;22.20;99.90;;;;;;5006233;28;20486;-51
2023/09/26 11:27:41;;;;;;;12.43;8.47;;;22.20;99.90;;;;;;4995358;28;20503;-50
2023/09/26 11:30:10;;;;;;;15.87;8.33;;;22.20;99.90;;;;;;5010662;28;20487;-50
2023/09/26 11:32:36;;;;;;;11.63;10.17;;;22.30;99.90;;;;;;5010115;28;20505;-51
2023/09/26 11:35:04;;;;;;;24.23;10.03;;;22.20;99.90;;;;;;5008481;28;20484;-51
2023/09/26 11:37:31;;;;;;;10.53;9.50;;;22.30;99.90;;;;;;4989421;28;20479;-52
2023/09/26 11:39:59;;;;;;;8.47;6.90;;;22.30;99.90;;;;;;5000018;28;20527;-52
2023/09/26 11:42:26;;;;;;;31.83;9.50;;;22.40;99.90;;;;;;5011938;28;20516;-52
2023/09/26 11:44:53;;;;;;;11.50;10.37;;;22.50;99.90;;;;;;5012761;28;20472;-51
2023/09/26 11:47:21;;;;;;;10.20;9.17;;;22.50;99.90;;;;;;5010662;28;20981;-50
2023/09/26 11:49:48;;;;;;;19.23;9.17;;;22.50;99.90;;;;;;5011660;28;20468;-49
2023/09/26 11:52:15;;;;;;;12.97;9.77;;;22.40;99.90;;;;;;5005844;28;20440;-50
2023/09/26 11:54:42;;;;;;;24.53;9.90;;;22.60;99.90;;;;;;4995836;28;20499;-52
2023/09/26 11:57:12;;;;;;;16.47;11.63;;;22.60;99.90;;;;;;5007593;28;20571;-56
2023/09/26 11:59:38;;;;;;;11.90;9.43;;;22.60;99.90;;;;;;5010769;28;20486;-52
2023/09/26 12:02:05;;;;;;;14.23;8.80;;;22.70;99.90;;;;;;5011437;28;20834;-57
2023/09/26 12:04:33;;;;;;;13.50;9.70;;;22.80;99.90;;;;;;5010106;28;20466;-57
2023/09/26 12:06:59;;;;;;;13.93;8.80;;;22.90;99.90;;;;;;5005406;28;20455;-53
2023/09/26 12:09:28;;;;;;;16.17;8.80;;;23.40;99.90;;;;;;5009337;28;20598;-53
2023/09/26 12:11:55;;;;;;;13.33;8.40;;;23.50;99.90;;;;;;5008480;28;20464;-50
2023/09/26 12:14:24;;;;;;;23.43;7.93;;;23.50;99.90;;;;;;4998882;28;20471;-50
2023/09/26 12:16:51;;;;;;;13.83;8.23;;;23.60;99.90;;;;;;4970813;28;20495;-53
2023/09/26 12:19:19;;;;;;;16.57;8.00;;;23.70;99.90;;;;;;4997364;28;20472;-53
2023/09/26 12:21:46;;;;;;;9.80;7.10;;;23.70;99.90;;;;;;5005961;28;20469;-53
2023/09/26 12:24:13;;;;;;;7.83;6.50;;;23.60;99.90;;;;;;5010181;28;20456;-53
2023/09/26 12:26:41;;;;;;;9.10;5.93;;;23.90;99.90;;;;;;5002171;28;20479;-52
2023/09/26 12:29:07;;;;;;;6.17;5.33;;;24.10;99.90;;;;;;4973590;28;20559;-52
2023/09/26 12:31:35;;;;;;;11.00;6.70;;;24.70;99.90;;;;;;4977839;28;20488;-52
2023/09/26 12:34:02;;;;;;;7.50;6.40;;;25.20;99.90;;;;;;5008848;28;20470;-52
2023/09/26 12:36:29;;;;;;;15.33;6.80;;;25.80;99.90;;;;;;4994764;28;20931;-52
2023/09/26 12:38:56;;;;;;;17.13;7.67;;;26.10;99.90;;;;;;5007848;28;20949;-53